createdAt,value
2022-12-28T00:00:54.402Z,38.80
2022-12-28T00:01:58.002Z,38.90
2022-12-28T00:03:00.620Z,38.90
2022-12-28T00:04:04.858Z,38.80
2022-12-28T00:05:08.441Z,38.90
2022-12-28T00:06:11.613Z,38.80
2022-12-28T00:07:28.143Z,38.80
2022-12-28T00:08:31.065Z,38.80
2022-12-28T00:09:34.432Z,38.80
2022-12-28T00:11:07.844Z,38.80
2022-12-28T00:12:00.538Z,39.40
2022-12-28T00:13:03.175Z,38.80
2022-12-28T00:14:06.074Z,38.90
2022-12-28T00:15:08.459Z,38.80
2022-12-28T00:16:19.244Z,38.80
2022-12-28T00:17:21.484Z,38.80
2022-12-28T00:18:23.929Z,38.90
2022-12-28T00:19:27.572Z,38.80
2022-12-28T00:20:29.791Z,38.80
2022-12-28T00:21:36.401Z,38.80
2022-12-28T00:22:38.989Z,38.90
2022-12-28T00:23:42.017Z,38.80
2022-12-28T00:24:45.829Z,38.80
2022-12-28T00:25:48.065Z,38.80
2022-12-28T00:26:50.909Z,38.90
2022-12-28T00:27:53.500Z,38.80
2022-12-28T00:29:03.570Z,38.80
2022-12-28T00:30:07.766Z,38.80
2022-12-28T00:31:10.170Z,38.80
2022-12-28T00:32:12.734Z,38.80
2022-12-28T00:33:15.007Z,38.80
2022-12-28T00:34:17.588Z,38.80
2022-12-28T00:35:21.363Z,38.80
2022-12-28T00:36:23.593Z,38.80
2022-12-28T00:37:26.216Z,38.80
2022-12-28T00:38:29.388Z,38.80
2022-12-28T00:39:31.621Z,38.80
2022-12-28T00:40:35.072Z,38.80
2022-12-28T00:41:37.388Z,38.80
2022-12-28T00:42:40.085Z,38.80
2022-12-28T00:43:42.319Z,38.80
2022-12-28T00:44:45.141Z,38.80
2022-12-28T00:45:48.513Z,38.80
2022-12-28T00:46:50.817Z,38.80
2022-12-28T00:47:55.005Z,38.80
2022-12-28T00:48:59.018Z,38.80
2022-12-28T00:50:02.021Z,38.90
2022-12-28T00:51:08.115Z,38.80
2022-12-28T00:52:13.707Z,38.80
2022-12-28T00:53:18.099Z,38.80
2022-12-28T00:54:20.491Z,38.80
2022-12-28T00:55:22.830Z,38.80
2022-12-28T00:56:25.063Z,39.40
2022-12-28T00:57:27.273Z,38.80
2022-12-28T00:58:31.366Z,38.80
2022-12-28T00:59:33.912Z,38.80
2022-12-28T01:00:37.155Z,38.90
2022-12-28T01:01:40.439Z,38.80
2022-12-28T01:02:43.116Z,38.80
2022-12-28T01:03:45.580Z,38.80
2022-12-28T01:04:47.884Z,38.80
2022-12-28T01:05:51.978Z,38.80
2022-12-28T01:06:54.521Z,38.80
2022-12-28T01:08:10.943Z,38.80
2022-12-28T01:09:14.140Z,38.80
2022-12-28T01:10:17.154Z,38.80
2022-12-28T01:11:23.682Z,38.80
2022-12-28T01:12:33.107Z,38.80
2022-12-28T01:13:41.100Z,38.80
2022-12-28T01:14:43.651Z,38.80
2022-12-28T01:15:45.883Z,38.80
2022-12-28T01:16:48.387Z,38.90
2022-12-28T01:17:50.652Z,38.80
2022-12-28T01:18:56.143Z,38.80
2022-12-28T01:20:00.561Z,38.80
2022-12-28T01:21:08.036Z,38.90
2022-12-28T01:22:11.011Z,38.80
2022-12-28T01:23:13.868Z,38.80
2022-12-28T01:24:16.141Z,38.80
2022-12-28T01:25:18.455Z,38.80
2022-12-28T01:26:20.877Z,38.80
2022-12-28T01:27:23.080Z,38.80
2022-12-28T01:28:25.438Z,38.80
2022-12-28T01:29:27.729Z,38.80
2022-12-28T01:30:31.397Z,38.80
2022-12-28T01:31:34.487Z,38.80
2022-12-28T01:32:38.309Z,38.80
2022-12-28T01:33:41.042Z,38.70
2022-12-28T01:34:44.640Z,38.80
2022-12-28T01:35:47.674Z,38.70
2022-12-28T01:36:49.902Z,38.80
2022-12-28T01:37:52.268Z,38.80
2022-12-28T01:38:56.950Z,38.80
2022-12-28T01:40:01.161Z,38.80
2022-12-28T01:41:06.830Z,38.80
2022-12-28T01:42:16.252Z,38.80
2022-12-28T01:43:29.351Z,38.80
2022-12-28T01:44:38.380Z,38.80
2022-12-28T01:45:41.301Z,38.80
2022-12-28T01:46:47.750Z,38.80
2022-12-28T01:47:52.723Z,38.80
2022-12-28T01:48:57.725Z,38.80
2022-12-28T01:50:12.014Z,38.80
2022-12-28T01:51:16.790Z,38.80
2022-12-28T01:52:19.852Z,38.80
2022-12-28T01:53:22.186Z,38.80
2022-12-28T01:54:26.734Z,38.80
2022-12-28T01:55:31.168Z,38.80
2022-12-28T01:56:33.528Z,38.80
2022-12-28T01:57:39.257Z,38.80
2022-12-28T01:58:41.792Z,38.80
2022-12-28T01:59:46.923Z,38.70
2022-12-28T02:00:51.189Z,38.80
2022-12-28T02:01:53.606Z,38.80
2022-12-28T02:02:59.554Z,38.80
2022-12-28T02:04:04.855Z,38.70
2022-12-28T02:05:08.070Z,38.80
2022-12-28T02:06:12.021Z,38.80
2022-12-28T02:07:19.001Z,38.80
2022-12-28T02:08:41.441Z,38.70
2022-12-28T02:09:43.849Z,38.80
2022-12-28T02:10:47.507Z,38.80
2022-12-28T02:11:51.381Z,38.80
2022-12-28T02:12:54.236Z,38.80
2022-12-28T02:13:57.336Z,38.80
2022-12-28T02:14:59.930Z,38.80
2022-12-28T02:16:05.791Z,38.80
2022-12-28T02:17:09.060Z,38.80
2022-12-28T02:18:14.321Z,38.80
2022-12-28T02:19:19.456Z,38.80
2022-12-28T02:20:27.800Z,38.80
2022-12-28T02:21:46.073Z,38.80
2022-12-28T02:22:59.267Z,38.80
2022-12-28T02:24:01.841Z,38.80
2022-12-28T02:25:12.331Z,38.80
2022-12-28T02:26:35.582Z,38.80
2022-12-28T02:27:37.938Z,38.80
2022-12-28T02:28:59.993Z,38.90
2022-12-28T02:30:06.025Z,38.80
2022-12-28T02:31:15.438Z,38.90
2022-12-28T02:32:26.977Z,38.80
2022-12-28T02:33:36.345Z,38.80
2022-12-28T02:34:44.452Z,38.80
2022-12-28T02:35:55.929Z,38.80
2022-12-28T02:37:33.476Z,38.80
2022-12-28T02:38:40.468Z,38.80
2022-12-28T02:39:53.107Z,38.80
2022-12-28T02:41:17.209Z,38.80
2022-12-28T02:42:21.920Z,38.80
2022-12-28T02:43:25.416Z,38.80
2022-12-28T02:44:46.709Z,38.80
2022-12-28T02:46:08.178Z,38.80
2022-12-28T02:47:33.082Z,38.80
2022-12-28T02:49:04.590Z,38.80
2022-12-28T02:50:11.021Z,38.80
2022-12-28T02:51:24.960Z,38.80
2022-12-28T02:52:33.340Z,38.80
2022-12-28T02:53:36.075Z,38.80
2022-12-28T02:54:56.737Z,38.80
2022-12-28T02:56:08.307Z,38.80
2022-12-28T02:57:33.044Z,38.80
2022-12-28T02:58:54.102Z,38.70
2022-12-28T03:00:02.420Z,38.80
2022-12-28T03:01:08.551Z,38.80
2022-12-28T03:02:29.811Z,38.80
2022-12-28T03:03:32.230Z,38.80
2022-12-28T03:04:35.048Z,38.80
2022-12-28T03:06:06.421Z,38.80
2022-12-28T03:07:33.980Z,38.80
2022-12-28T03:08:42.228Z,38.80
2022-12-28T03:09:47.439Z,38.80
2022-12-28T03:11:00.097Z,38.80
2022-12-28T03:12:09.920Z,38.80
2022-12-28T03:13:44.828Z,38.80
2022-12-28T03:15:04.813Z,38.80
2022-12-28T03:16:12.573Z,38.80
2022-12-28T03:17:34.813Z,38.80
2022-12-28T03:18:56.249Z,38.80
2022-12-28T03:20:21.653Z,38.80
2022-12-28T03:21:42.652Z,38.80
2022-12-28T03:23:04.367Z,38.80
2022-12-28T03:24:27.075Z,38.80
2022-12-28T03:25:53.929Z,38.80
2022-12-28T03:27:21.796Z,38.80
2022-12-28T03:28:49.320Z,38.80
2022-12-28T03:30:17.499Z,38.80
2022-12-28T03:31:22.285Z,38.80
2022-12-28T03:32:29.263Z,38.80
2022-12-28T03:33:32.327Z,38.80
2022-12-28T03:34:34.597Z,38.80
2022-12-28T03:35:36.848Z,38.80
2022-12-28T03:36:54.499Z,38.70
2022-12-28T03:38:02.780Z,38.80
2022-12-28T03:39:23.189Z,38.80
2022-12-28T03:40:26.439Z,38.80
2022-12-28T03:41:37.263Z,38.70
2022-12-28T03:43:19.184Z,38.70
2022-12-28T03:44:24.024Z,38.80
2022-12-28T03:45:45.359Z,38.80
2022-12-28T03:46:52.146Z,38.80
2022-12-28T03:47:56.273Z,38.80
2022-12-28T03:49:00.456Z,38.80
2022-12-28T03:50:04.545Z,38.80
2022-12-28T03:51:09.477Z,39.40
2022-12-28T03:52:12.262Z,38.80
2022-12-28T03:53:17.418Z,38.80
2022-12-28T03:54:19.930Z,38.80
2022-12-28T03:55:24.157Z,38.80
2022-12-28T03:56:28.901Z,38.70
2022-12-28T03:57:35.359Z,38.70
2022-12-28T03:58:40.234Z,38.80
2022-12-28T03:59:43.951Z,38.80
2022-12-28T04:00:46.231Z,38.80
2022-12-28T04:01:49.210Z,38.80
2022-12-28T04:02:53.948Z,38.70
2022-12-28T04:03:56.307Z,38.70
2022-12-28T04:04:59.955Z,38.70
2022-12-28T04:06:02.305Z,38.80
2022-12-28T04:07:04.521Z,38.80
2022-12-28T04:08:08.010Z,38.80
2022-12-28T04:09:11.034Z,38.70
2022-12-28T04:10:16.291Z,38.70
2022-12-28T04:11:18.713Z,38.80
2022-12-28T04:12:27.652Z,38.80
2022-12-28T04:13:44.395Z,38.70
2022-12-28T04:14:48.297Z,38.70
2022-12-28T04:15:58.426Z,38.80
2022-12-28T04:17:00.680Z,38.80
2022-12-28T04:18:03.422Z,38.80
2022-12-28T04:19:09.080Z,38.70
2022-12-28T04:20:13.481Z,38.70
2022-12-28T04:21:15.970Z,38.70
2022-12-28T04:22:19.789Z,38.70
2022-12-28T04:23:22.711Z,38.70
2022-12-28T04:24:30.689Z,38.70
2022-12-28T04:25:33.987Z,38.70
2022-12-28T04:26:36.917Z,38.70
2022-12-28T04:27:39.227Z,38.70
2022-12-28T04:28:50.128Z,38.70
2022-12-28T04:30:09.297Z,38.70
2022-12-28T04:31:13.347Z,38.70
2022-12-28T04:32:21.181Z,38.70
2022-12-28T04:33:23.885Z,38.70
2022-12-28T04:34:26.162Z,38.70
2022-12-28T04:35:33.600Z,38.70
2022-12-28T04:36:35.879Z,38.70
2022-12-28T04:37:43.236Z,38.70
2022-12-28T04:38:46.644Z,38.70
2022-12-28T04:39:55.173Z,38.70
2022-12-28T04:41:00.724Z,38.70
2022-12-28T04:42:02.974Z,38.70
2022-12-28T04:43:07.548Z,38.70
2022-12-28T04:44:10.045Z,38.70
2022-12-28T04:45:16.995Z,38.70
2022-12-28T04:46:26.438Z,38.70
2022-12-28T04:47:30.110Z,38.80
2022-12-28T04:48:32.353Z,38.70
2022-12-28T04:49:35.187Z,38.70
2022-12-28T04:50:37.743Z,38.70
2022-12-28T04:51:42.514Z,38.70
2022-12-28T04:52:47.114Z,38.70
2022-12-28T04:53:49.516Z,38.70
2022-12-28T04:54:51.714Z,38.80
2022-12-28T04:55:55.169Z,38.70
2022-12-28T04:56:57.502Z,38.70
2022-12-28T04:58:01.001Z,38.70
2022-12-28T04:59:03.591Z,38.70
2022-12-28T05:00:06.174Z,38.70
2022-12-28T05:01:09.885Z,38.70
2022-12-28T05:02:13.613Z,38.70
2022-12-28T05:03:16.214Z,38.70
2022-12-28T05:04:19.229Z,38.70
2022-12-28T05:05:22.167Z,38.70
2022-12-28T05:06:27.906Z,38.70
2022-12-28T05:07:34.535Z,38.70
2022-12-28T05:08:38.097Z,38.70
2022-12-28T05:09:41.960Z,38.70
2022-12-28T05:10:48.030Z,38.60
2022-12-28T05:11:52.253Z,38.60
2022-12-28T05:12:55.305Z,38.70
2022-12-28T05:13:58.570Z,38.70
2022-12-28T05:15:01.431Z,38.60
2022-12-28T05:16:07.688Z,38.70
2022-12-28T05:17:10.453Z,38.60
2022-12-28T05:18:14.227Z,38.60
2022-12-28T05:19:18.347Z,38.70
2022-12-28T05:20:20.620Z,38.60
2022-12-28T05:21:25.354Z,38.60
2022-12-28T05:22:28.212Z,38.60
2022-12-28T05:23:31.347Z,38.60
2022-12-28T05:24:34.909Z,38.60
2022-12-28T05:25:37.568Z,38.60
2022-12-28T05:26:41.002Z,38.60
2022-12-28T05:27:43.580Z,38.60
2022-12-28T05:28:45.967Z,38.60
2022-12-28T05:29:50.329Z,38.60
2022-12-28T05:30:53.182Z,38.60
2022-12-28T05:31:55.613Z,38.60
2022-12-28T05:32:59.450Z,38.60
2022-12-28T05:34:03.203Z,39.20
2022-12-28T05:35:05.981Z,39.20
2022-12-28T05:36:18.351Z,38.60
2022-12-28T05:37:22.294Z,38.50
2022-12-28T05:38:24.823Z,38.60
2022-12-28T05:39:27.210Z,38.50
2022-12-28T05:40:31.137Z,38.50
2022-12-28T05:41:34.702Z,38.50
2022-12-28T05:42:37.101Z,38.60
2022-12-28T05:43:39.310Z,38.50
2022-12-28T05:44:41.985Z,38.60
2022-12-28T05:45:44.175Z,38.50
2022-12-28T05:46:48.468Z,38.50
2022-12-28T05:47:50.708Z,38.60
2022-12-28T05:48:55.169Z,38.50
2022-12-28T05:49:57.370Z,38.50
2022-12-28T05:51:00.941Z,38.50
2022-12-28T05:52:03.596Z,38.50
2022-12-28T05:53:12.108Z,38.50
2022-12-28T05:54:14.746Z,38.50
2022-12-28T05:55:16.936Z,38.50
2022-12-28T05:56:20.504Z,38.50
2022-12-28T05:57:23.014Z,38.50
2022-12-28T05:58:26.106Z,38.50
2022-12-28T05:59:28.465Z,38.50
2022-12-28T06:00:30.669Z,38.50
2022-12-28T06:01:37.432Z,38.50
2022-12-28T06:02:58.439Z,38.50
2022-12-28T06:04:04.543Z,38.50
2022-12-28T06:05:07.138Z,38.50
2022-12-28T06:06:11.107Z,38.40
2022-12-28T06:07:13.398Z,38.40
2022-12-28T06:08:20.986Z,38.40
2022-12-28T06:09:24.777Z,38.40
2022-12-28T06:10:27.031Z,38.40
2022-12-28T06:11:29.437Z,38.40
2022-12-28T06:12:31.667Z,38.40
2022-12-28T06:13:34.223Z,38.40
2022-12-28T06:14:36.691Z,38.40
2022-12-28T06:15:38.944Z,38.40
2022-12-28T06:16:42.401Z,38.40
2022-12-28T06:17:44.726Z,38.40
2022-12-28T06:18:48.509Z,38.40
2022-12-28T06:19:51.083Z,38.40
2022-12-28T06:20:57.122Z,38.40
2022-12-28T06:21:59.581Z,38.40
2022-12-28T06:23:01.804Z,38.40
2022-12-28T06:24:04.845Z,38.30
2022-12-28T06:25:08.581Z,38.30
2022-12-28T06:26:12.725Z,38.30
2022-12-28T06:27:16.521Z,38.30
2022-12-28T06:28:18.725Z,38.30
2022-12-28T06:29:22.528Z,38.30
2022-12-28T06:30:25.125Z,38.30
2022-12-28T06:31:31.853Z,38.30
2022-12-28T06:32:44.186Z,38.30
2022-12-28T06:33:47.296Z,38.30
2022-12-28T06:34:49.508Z,38.30
2022-12-28T06:35:51.763Z,38.30
2022-12-28T06:36:56.738Z,38.30
2022-12-28T06:38:00.183Z,38.30
2022-12-28T06:39:03.868Z,38.30
2022-12-28T06:40:07.075Z,38.30
2022-12-28T06:41:13.813Z,38.30
2022-12-28T06:42:16.684Z,38.30
2022-12-28T06:43:19.150Z,38.30
2022-12-28T06:44:21.387Z,38.30
2022-12-28T06:45:24.012Z,38.30
2022-12-28T06:46:27.441Z,38.30
2022-12-28T06:47:29.675Z,38.30
2022-12-28T06:48:33.210Z,38.30
2022-12-28T06:49:35.413Z,38.90
2022-12-28T06:50:40.330Z,38.20
2022-12-28T06:51:42.994Z,38.20
2022-12-28T06:52:45.264Z,38.20
2022-12-28T06:53:48.805Z,38.20
2022-12-28T06:54:51.401Z,38.20
2022-12-28T06:55:58.157Z,38.20
2022-12-28T06:57:00.421Z,38.20
2022-12-28T06:58:02.721Z,38.20
2022-12-28T06:59:05.457Z,38.20
2022-12-28T07:00:08.022Z,38.20
2022-12-28T07:01:12.728Z,38.20
2022-12-28T07:02:15.197Z,38.20
2022-12-28T07:03:20.339Z,38.20
2022-12-28T07:04:22.949Z,38.10
2022-12-28T07:05:25.181Z,38.20
2022-12-28T07:06:29.041Z,38.20
2022-12-28T07:07:31.325Z,38.10
2022-12-28T07:08:35.968Z,38.10
2022-12-28T07:09:39.137Z,38.20
2022-12-28T07:10:41.701Z,38.10
2022-12-28T07:11:44.628Z,38.10
2022-12-28T07:12:46.921Z,38.10
2022-12-28T07:13:50.143Z,38.10
2022-12-28T07:14:52.327Z,38.10
2022-12-28T07:15:56.150Z,38.10
2022-12-28T07:16:58.841Z,38.10
2022-12-28T07:18:01.019Z,38.10
2022-12-28T07:19:03.283Z,38.10
2022-12-28T07:20:06.148Z,38.10
2022-12-28T07:21:13.211Z,38.10
2022-12-28T07:22:17.305Z,38.10
2022-12-28T07:23:19.624Z,38.10
2022-12-28T07:24:21.823Z,38.10
2022-12-28T07:25:24.139Z,38.10
2022-12-28T07:26:27.409Z,38.10
2022-12-28T07:27:29.704Z,38.10
2022-12-28T07:28:31.949Z,38.10
2022-12-28T07:29:34.519Z,38.10
2022-12-28T07:30:37.381Z,38.10
2022-12-28T07:31:45.615Z,38.10
2022-12-28T07:32:48.287Z,38.00
2022-12-28T07:33:52.700Z,38.10
2022-12-28T07:34:54.935Z,38.00
2022-12-28T07:35:58.133Z,38.00
2022-12-28T07:37:00.641Z,38.00
2022-12-28T07:38:03.478Z,38.00
2022-12-28T07:39:07.254Z,38.00
2022-12-28T07:40:11.321Z,38.00
2022-12-28T07:41:15.794Z,38.10
2022-12-28T07:42:19.518Z,38.00
2022-12-28T07:43:22.018Z,38.00
2022-12-28T07:44:29.275Z,38.00
2022-12-28T07:45:32.273Z,38.00
2022-12-28T07:46:36.195Z,38.00
2022-12-28T07:47:38.483Z,38.00
2022-12-28T07:48:41.540Z,38.00
2022-12-28T07:49:43.812Z,38.50
2022-12-28T07:50:46.403Z,38.00
2022-12-28T07:51:49.401Z,38.00
2022-12-28T07:52:52.889Z,38.00
2022-12-28T07:53:55.887Z,38.00
2022-12-28T07:54:58.560Z,38.00
2022-12-28T07:56:02.415Z,37.90
2022-12-28T07:57:04.687Z,37.90
2022-12-28T07:58:06.904Z,37.90
2022-12-28T07:59:10.484Z,38.00
2022-12-28T08:00:13.631Z,38.00
2022-12-28T08:01:17.359Z,37.90
2022-12-28T08:02:20.239Z,37.90
2022-12-28T08:03:22.588Z,37.90
2022-12-28T08:04:24.856Z,37.90
2022-12-28T08:05:27.096Z,37.90
2022-12-28T08:06:30.864Z,38.00
2022-12-28T08:07:35.093Z,38.00
2022-12-28T08:08:43.190Z,37.90
2022-12-28T08:09:45.430Z,37.90
2022-12-28T08:10:49.169Z,37.90
2022-12-28T08:11:51.386Z,37.90
2022-12-28T08:12:56.406Z,37.90
2022-12-28T08:13:59.313Z,37.90
2022-12-28T08:15:01.738Z,37.90
2022-12-28T08:16:06.514Z,37.90
2022-12-28T08:17:08.739Z,37.90
2022-12-28T08:18:10.936Z,37.90
2022-12-28T08:19:14.078Z,37.80
2022-12-28T08:20:16.336Z,37.90
2022-12-28T08:21:26.525Z,37.90
2022-12-28T08:22:28.709Z,37.80
2022-12-28T08:23:31.561Z,37.80
2022-12-28T08:24:35.846Z,37.90
2022-12-28T08:25:40.629Z,37.80
2022-12-28T08:26:44.264Z,37.80
2022-12-28T08:27:46.457Z,37.80
2022-12-28T08:28:49.832Z,37.80
2022-12-28T08:29:52.156Z,37.80
2022-12-28T08:30:55.216Z,37.90
2022-12-28T08:31:57.457Z,37.80
2022-12-28T08:32:59.745Z,37.80
2022-12-28T08:34:03.197Z,37.80
2022-12-28T08:35:08.277Z,37.80
2022-12-28T08:36:10.953Z,37.80
2022-12-28T08:37:13.829Z,37.80
2022-12-28T08:38:16.167Z,37.80
2022-12-28T08:39:18.476Z,37.80
2022-12-28T08:40:20.685Z,37.80
2022-12-28T08:41:24.155Z,37.80
2022-12-28T08:42:26.478Z,37.80
2022-12-28T08:43:29.006Z,37.80
2022-12-28T08:44:33.713Z,37.80
2022-12-28T08:45:37.144Z,37.80
2022-12-28T08:46:40.770Z,37.80
2022-12-28T08:47:43.161Z,37.80
2022-12-28T08:48:46.131Z,37.80
2022-12-28T08:49:51.681Z,37.80
2022-12-28T08:50:55.343Z,37.80
2022-12-28T08:51:57.916Z,37.80
2022-12-28T08:53:00.198Z,37.80
2022-12-28T08:54:02.672Z,37.70
2022-12-28T08:55:05.132Z,37.80
2022-12-28T08:56:11.948Z,37.70
2022-12-28T08:57:15.756Z,37.80
2022-12-28T08:58:19.169Z,37.80
2022-12-28T08:59:23.113Z,37.80
2022-12-28T09:00:26.667Z,37.80
2022-12-28T09:01:38.956Z,37.70
2022-12-28T09:02:46.135Z,37.70
2022-12-28T09:03:49.851Z,37.70
2022-12-28T09:04:52.334Z,37.70
2022-12-28T09:05:54.866Z,37.70
2022-12-28T09:06:57.461Z,38.30
2022-12-28T09:07:59.975Z,37.70
2022-12-28T09:09:06.780Z,37.70
2022-12-28T09:10:10.891Z,37.70
2022-12-28T09:11:16.213Z,37.70
2022-12-28T09:12:19.682Z,37.70
2022-12-28T09:13:22.527Z,37.70
2022-12-28T09:14:25.106Z,37.70
2022-12-28T09:15:27.318Z,37.70
2022-12-28T09:16:29.942Z,37.70
2022-12-28T09:17:32.628Z,37.70
2022-12-28T09:18:35.225Z,37.70
2022-12-28T09:19:37.506Z,37.70
2022-12-28T09:20:44.432Z,37.70
2022-12-28T09:21:53.361Z,37.70
2022-12-28T09:22:55.725Z,37.60
2022-12-28T09:23:58.310Z,37.70
2022-12-28T09:25:01.082Z,37.60
2022-12-28T09:26:04.340Z,37.60
2022-12-28T09:27:08.125Z,37.60
2022-12-28T09:28:12.312Z,37.60
2022-12-28T09:29:15.060Z,37.60
2022-12-28T09:30:19.123Z,37.60
2022-12-28T09:31:24.143Z,37.60
2022-12-28T09:32:26.736Z,37.60
2022-12-28T09:34:24.791Z,37.60
2022-12-28T09:35:11.178Z,37.60
2022-12-28T09:36:16.448Z,38.20
2022-12-28T09:37:19.616Z,37.60
2022-12-28T09:38:21.852Z,37.60
2022-12-28T09:39:25.093Z,37.60
2022-12-28T09:40:28.763Z,37.60
2022-12-28T09:41:39.295Z,37.60
2022-12-28T09:42:42.439Z,37.60
2022-12-28T09:43:44.747Z,37.60
2022-12-28T09:45:02.398Z,37.60
2022-12-28T09:46:05.117Z,37.60
2022-12-28T09:47:18.363Z,37.60
2022-12-28T09:48:23.254Z,37.60
2022-12-28T09:49:52.156Z,37.60
2022-12-28T09:50:55.515Z,37.60
2022-12-28T09:51:58.067Z,37.60
2022-12-28T09:53:03.802Z,37.60
2022-12-28T09:54:06.438Z,37.60
2022-12-28T09:55:16.002Z,37.60
2022-12-28T09:56:31.133Z,37.60
2022-12-28T09:57:37.668Z,37.50
2022-12-28T09:58:45.172Z,37.60
2022-12-28T09:59:52.494Z,37.50
2022-12-28T10:01:09.505Z,37.50
2022-12-28T10:02:19.918Z,37.60
2022-12-28T10:03:29.510Z,37.50
2022-12-28T10:04:31.748Z,37.50
2022-12-28T10:05:34.299Z,37.50
2022-12-28T10:06:37.196Z,37.50
2022-12-28T10:07:39.734Z,37.50
2022-12-28T10:08:46.764Z,37.50
2022-12-28T10:09:49.813Z,37.50
2022-12-28T10:10:52.817Z,37.50
2022-12-28T10:11:55.103Z,37.50
2022-12-28T10:13:02.139Z,37.50
2022-12-28T10:14:18.070Z,37.50
2022-12-28T10:15:28.574Z,37.50
2022-12-28T10:16:33.294Z,37.50
2022-12-28T10:17:36.815Z,37.50
2022-12-28T10:18:40.302Z,37.50
2022-12-28T10:19:47.121Z,37.50
2022-12-28T10:20:50.355Z,37.50
2022-12-28T10:22:02.098Z,37.50
2022-12-28T10:23:06.422Z,37.50
2022-12-28T10:24:30.795Z,37.50
2022-12-28T10:25:35.621Z,37.50
2022-12-28T10:26:38.157Z,37.50
2022-12-28T10:27:41.889Z,37.50
2022-12-28T10:28:48.877Z,37.50
2022-12-28T10:29:53.145Z,37.50
2022-12-28T10:31:09.325Z,37.50
2022-12-28T10:32:13.021Z,37.50
2022-12-28T10:33:18.101Z,37.50
2022-12-28T10:34:22.571Z,37.50
2022-12-28T10:35:26.464Z,37.50
2022-12-28T10:36:35.090Z,37.50
2022-12-28T10:37:43.647Z,37.40
2022-12-28T10:38:50.794Z,37.50
2022-12-28T10:39:54.991Z,37.50
2022-12-28T10:41:11.127Z,38.00
2022-12-28T10:42:40.054Z,37.50
2022-12-28T10:43:44.699Z,37.50
2022-12-28T10:44:48.631Z,37.50
2022-12-28T10:45:53.071Z,37.50
2022-12-28T10:46:58.288Z,37.40
2022-12-28T10:48:01.107Z,37.50
2022-12-28T10:49:04.522Z,37.40
2022-12-28T10:51:29.766Z,37.40
2022-12-28T10:52:33.186Z,37.50
2022-12-28T10:53:38.803Z,37.40
2022-12-28T10:54:41.414Z,37.40
2022-12-28T10:55:44.046Z,37.40
2022-12-28T10:56:49.167Z,37.40
2022-12-28T10:58:27.602Z,37.50
2022-12-28T10:59:23.826Z,37.40
2022-12-28T11:00:26.248Z,37.40
2022-12-28T11:01:29.779Z,37.40
2022-12-28T11:02:33.274Z,37.40
2022-12-28T11:03:37.055Z,37.40
2022-12-28T11:04:52.181Z,37.40
2022-12-28T11:06:11.845Z,37.40
2022-12-28T11:07:26.500Z,37.40
2022-12-28T11:08:29.282Z,37.40
2022-12-28T11:09:35.311Z,37.40
2022-12-28T11:10:40.352Z,37.40
2022-12-28T11:11:43.914Z,37.40
2022-12-28T11:12:46.167Z,37.40
2022-12-28T11:13:56.842Z,37.40
2022-12-28T11:14:59.030Z,37.40
2022-12-28T11:16:01.304Z,37.40
2022-12-28T11:17:13.295Z,37.40
2022-12-28T11:18:18.018Z,37.40
2022-12-28T11:19:20.705Z,37.40
2022-12-28T11:20:29.003Z,37.40
2022-12-28T11:21:31.563Z,37.40
2022-12-28T11:22:35.105Z,37.30
2022-12-28T11:23:39.228Z,37.30
2022-12-28T11:24:42.898Z,37.40
2022-12-28T11:25:46.710Z,37.30
2022-12-28T11:26:50.122Z,37.40
2022-12-28T11:27:52.451Z,37.40
2022-12-28T11:28:54.807Z,37.40
2022-12-28T11:29:58.451Z,37.40
2022-12-28T11:31:04.584Z,37.40
2022-12-28T11:32:15.858Z,37.30
2022-12-28T11:33:26.852Z,37.30
2022-12-28T11:34:29.874Z,37.30
2022-12-28T11:35:35.281Z,37.30
2022-12-28T11:36:39.183Z,37.40
2022-12-28T11:37:48.530Z,37.30
2022-12-28T11:38:51.837Z,37.30
2022-12-28T11:39:54.261Z,37.30
2022-12-28T11:40:57.183Z,37.40
2022-12-28T11:42:37.044Z,37.30
2022-12-28T11:43:29.021Z,37.30
2022-12-28T11:45:00.680Z,37.30
2022-12-28T11:46:03.777Z,37.40
2022-12-28T11:47:24.877Z,37.30
2022-12-28T11:48:39.084Z,37.30
2022-12-28T11:49:43.125Z,37.30
2022-12-28T11:50:53.097Z,37.30
2022-12-28T11:52:15.175Z,37.30
2022-12-28T11:53:40.693Z,37.30
2022-12-28T11:54:54.947Z,37.90
2022-12-28T11:56:05.230Z,37.30
2022-12-28T11:57:08.163Z,37.30
2022-12-28T11:58:33.419Z,37.30
2022-12-28T11:59:37.499Z,37.30
2022-12-28T12:00:40.115Z,37.30
2022-12-28T12:01:44.262Z,37.30
2022-12-28T12:02:50.925Z,37.30
2022-12-28T12:03:59.005Z,37.30
2022-12-28T12:05:21.182Z,37.30
2022-12-28T12:06:41.472Z,37.30
2022-12-28T12:07:46.712Z,37.30
2022-12-28T12:08:50.317Z,37.30
2022-12-28T12:10:11.573Z,37.30
2022-12-28T12:11:34.418Z,37.30
2022-12-28T12:12:37.483Z,37.30
2022-12-28T12:13:44.359Z,37.30
2022-12-28T12:14:55.104Z,37.30
2022-12-28T12:16:06.088Z,37.30
2022-12-28T12:17:17.033Z,37.20
2022-12-28T12:18:22.484Z,37.30
2022-12-28T12:19:49.884Z,37.30
2022-12-28T12:20:54.110Z,37.30
2022-12-28T12:22:01.270Z,37.30
2022-12-28T12:23:08.793Z,37.20
2022-12-28T12:24:18.505Z,37.30
2022-12-28T12:25:28.074Z,37.20
2022-12-28T12:26:49.056Z,37.30
2022-12-28T12:27:55.106Z,37.20
2022-12-28T12:29:17.563Z,37.30
2022-12-28T12:30:21.028Z,37.20
2022-12-28T12:31:35.579Z,37.20
2022-12-28T12:32:53.738Z,37.30
2022-12-28T12:33:59.571Z,37.30
2022-12-28T12:35:06.416Z,37.20
2022-12-28T12:36:26.381Z,37.20
2022-12-28T12:37:35.603Z,37.30
2022-12-28T12:38:49.858Z,37.20
2022-12-28T12:39:55.259Z,37.20
2022-12-28T12:41:11.110Z,37.20
2022-12-28T12:42:32.761Z,37.20
2022-12-28T12:44:00.391Z,37.20
2022-12-28T12:45:08.299Z,37.30
2022-12-28T12:46:29.384Z,37.20
2022-12-28T12:47:44.977Z,37.20
2022-12-28T12:49:07.131Z,37.20
2022-12-28T12:50:27.994Z,37.20
2022-12-28T12:51:39.265Z,37.20
2022-12-28T12:52:51.461Z,37.20
2022-12-28T12:54:08.244Z,37.80
2022-12-28T12:55:36.761Z,37.30
2022-12-28T12:56:47.100Z,37.20
2022-12-28T12:58:02.189Z,37.20
2022-12-28T12:59:11.134Z,37.20
2022-12-28T13:00:20.736Z,37.20
2022-12-28T13:01:29.552Z,37.20
2022-12-28T13:02:40.916Z,37.20
2022-12-28T13:03:52.360Z,37.20
2022-12-28T13:04:55.069Z,37.20
2022-12-28T13:05:57.872Z,37.20
2022-12-28T13:07:03.752Z,37.20
2022-12-28T13:08:08.758Z,37.20
2022-12-28T13:09:15.595Z,37.20
2022-12-28T13:10:22.639Z,37.20
2022-12-28T13:11:26.114Z,37.20
2022-12-28T13:12:28.849Z,37.20
2022-12-28T13:13:35.132Z,37.20
2022-12-28T13:14:37.443Z,37.20
2022-12-28T13:15:43.273Z,37.20
2022-12-28T13:16:50.695Z,37.20
2022-12-28T13:18:43.919Z,37.20
2022-12-28T13:19:28.520Z,37.20
2022-12-28T13:20:31.609Z,37.20
2022-12-28T13:21:41.502Z,37.20
2022-12-28T13:22:45.539Z,37.20
2022-12-28T13:23:48.142Z,37.20
2022-12-28T13:24:50.768Z,37.20
2022-12-28T13:25:54.599Z,37.20
2022-12-28T13:26:58.649Z,37.20
2022-12-28T13:28:02.667Z,37.20
2022-12-28T13:29:08.964Z,37.20
2022-12-28T13:30:17.445Z,37.20
2022-12-28T13:31:23.585Z,37.20
2022-12-28T13:32:35.983Z,37.20
2022-12-28T13:33:41.517Z,37.20
2022-12-28T13:34:48.800Z,37.20
2022-12-28T13:36:09.499Z,37.20
2022-12-28T13:37:21.452Z,37.20
2022-12-28T13:38:24.188Z,37.20
2022-12-28T13:39:41.874Z,37.20
2022-12-28T13:40:52.351Z,37.20
2022-12-28T13:41:58.822Z,37.20
2022-12-28T13:43:12.649Z,37.20
2022-12-28T13:44:15.007Z,37.20
2022-12-28T13:45:19.562Z,37.20
2022-12-28T13:46:22.577Z,37.20
2022-12-28T13:47:28.235Z,37.20
2022-12-28T13:48:31.465Z,37.20
2022-12-28T13:49:37.084Z,37.20
2022-12-28T13:50:41.586Z,37.20
2022-12-28T13:51:49.739Z,37.20
2022-12-28T13:53:00.160Z,37.20
2022-12-28T13:54:02.730Z,37.70
2022-12-28T13:55:07.630Z,37.20
2022-12-28T13:56:12.297Z,37.20
2022-12-28T13:58:43.124Z,37.20
2022-12-28T13:59:46.227Z,37.20
2022-12-28T14:00:50.089Z,37.20
2022-12-28T14:01:52.493Z,37.20
2022-12-28T14:02:58.010Z,37.20
2022-12-28T14:04:33.574Z,37.20
2022-12-28T14:05:26.633Z,37.20
2022-12-28T14:06:29.325Z,37.20
2022-12-28T14:07:35.407Z,37.10
2022-12-28T14:08:39.294Z,37.10
2022-12-28T14:09:41.729Z,37.10
2022-12-28T14:10:49.672Z,37.10
2022-12-28T14:11:52.351Z,37.10
2022-12-28T14:12:56.324Z,37.10
2022-12-28T14:13:59.143Z,37.10
2022-12-28T14:15:04.206Z,37.10
2022-12-28T14:16:06.780Z,37.10
2022-12-28T14:17:09.520Z,37.10
2022-12-28T14:18:15.604Z,37.10